Old Joe, Arkansas
Current Conditions -  °F | °C
As of 6:53 PM on Saturday 25 Oct 2014 (Local Time) from KBPK Reporting Station
Clear Clear  
Wind Chill: 72°   Ceiling: Unl
Heat Index: 72°   Visibility: 10mi
Dew Point: 62°   Wind: 0mph
Humidity: 71%   Direction: NA
Pressure: 30.02"   Gusts: NA
Location:  36.2155°N, 92.269°W
Report Text: KBPK 252353Z AUTO 00000KT 10SM CLR 22/17 A3002 RMK AO2 SLP159 T02220167 10289 20222 53000
Loading
Personal Weather Stations






























Interactive Weather Map
Tropical Storm Tracking
New forecast layout! Learn more

10-Day Weather Forecast

Advertisements
Track Severe Weather on mobile